EGDX

MOD St. Athan Airport

St. Athan, United Kingdom
METAR EGDX 190650Z AUTO 36002KT 9999 OVC044/// 16/12 Q1019
Observed Flight Rules
Jul-19 @ 06:50 UTC (38 minutes ago) Visual Flight Rules
Wind Visibility Clouds
360° at 2 knots 10,000+ meters
  • Overcast at 4,400' AGL
Temperatures Readings
Current 16°C / 61°F
Dewpoint 12°C / 54°F
Humidity 77%
Altimeter 30.09" Hg
Pressure 1019 hPa
Elevation 50
METAR EGDX 190650Z AUTO 36002KT 9999 OVC044/// 16/12 Q1019
Observed Flight Rules
Jul-19 @ 06:50 UTC
(38 minutes ago)
VFR
Wind Visibility
360° at 2 knots 10,000+ meters
Clouds
  • Overcast at 4,400' AGL
Temperature Dewpoint
16°C / 61°F 12°C / 54°F
Humidity Altimeter Pressure
77% 30.09" Hg 1019 hPa